sensor_id;sensor_type;location;lat;lon;timestamp;pressure;altitude;pressure_sealevel;temperature
74043;BMP280;62384;53.600;10.040;2023-03-23T00:01:10;67497.94;;;11.60
74043;BMP280;62384;53.600;10.040;2023-03-23T00:03:38;66670.28;;;11.53
74043;BMP280;62384;53.600;10.040;2023-03-23T00:06:03;65653.03;;;11.45
74043;BMP280;62384;53.600;10.040;2023-03-23T00:08:33;64089.28;;;11.31
74043;BMP280;62384;53.600;10.040;2023-03-23T00:11:03;62841.28;;;11.15
74043;BMP280;62384;53.600;10.040;2023-03-23T00:13:28;60737.78;;;11.14
74043;BMP280;62384;53.600;10.040;2023-03-23T00:15:54;59575.66;;;11.12
74043;BMP280;62384;53.600;10.040;2023-03-23T00:18:22;58317.88;;;11.09
74043;BMP280;62384;53.600;10.040;2023-03-23T00:20:49;57406.38;;;11.11
74043;BMP280;62384;53.600;10.040;2023-03-23T00:23:16;57041.50;;;11.05
74043;BMP280;62384;53.600;10.040;2023-03-23T00:25:45;56056.53;;;11.10
74043;BMP280;62384;53.600;10.040;2023-03-23T00:28:10;55444.03;;;11.02
74043;BMP280;62384;53.600;10.040;2023-03-23T00:30:38;54811.03;;;11.04
74043;BMP280;62384;53.600;10.040;2023-03-23T00:33:03;54230.41;;;11.12
74043;BMP280;62384;53.600;10.040;2023-03-23T00:35:29;54022.56;;;11.06
74043;BMP280;62384;53.600;10.040;2023-03-23T00:37:56;54155.19;;;11.10
74043;BMP280;62384;53.600;10.040;2023-03-23T00:40:23;53995.06;;;11.08
74043;BMP280;62384;53.600;10.040;2023-03-23T00:42:49;53804.81;;;11.12
74043;BMP280;62384;53.600;10.040;2023-03-23T00:45:14;53813.03;;;11.09
74043;BMP280;62384;53.600;10.040;2023-03-23T00:47:40;53801.84;;;11.15
74043;BMP280;62384;53.600;10.040;2023-03-23T00:50:07;53748.97;;;11.15
74043;BMP280;62384;53.600;10.040;2023-03-23T00:52:32;53655.34;;;11.17
74043;BMP280;62384;53.600;10.040;2023-03-23T00:54:58;53672.31;;;11.15
74043;BMP280;62384;53.600;10.040;2023-03-23T00:57:23;53703.25;;;11.14
74043;BMP280;62384;53.600;10.040;2023-03-23T00:59:52;53989.06;;;11.11
74043;BMP280;62384;53.600;10.040;2023-03-23T01:02:17;53559.31;;;11.09
74043;BMP280;62384;53.600;10.040;2023-03-23T01:04:44;53528.03;;;11.13
74043;BMP280;62384;53.600;10.040;2023-03-23T01:07:10;53436.03;;;11.24
74043;BMP280;62384;53.600;10.040;2023-03-23T01:09:38;53343.91;;;11.24
74043;BMP280;62384;53.600;10.040;2023-03-23T01:12:05;53458.56;;;11.12
74043;BMP280;62384;53.600;10.040;2023-03-23T01:14:31;53667.72;;;11.12
74043;BMP280;62384;53.600;10.040;2023-03-23T01:16:56;53548.13;;;11.18
74043;BMP280;62384;53.600;10.040;2023-03-23T01:19:22;53654.19;;;11.15
74043;BMP280;62384;53.600;10.040;2023-03-23T01:21:48;53468.34;;;11.11
74043;BMP280;62384;53.600;10.040;2023-03-23T01:24:13;53404.84;;;11.04
74043;BMP280;62384;53.600;10.040;2023-03-23T01:26:39;53337.88;;;10.85
74043;BMP280;62384;53.600;10.040;2023-03-23T01:29:04;53319.53;;;11.03
74043;BMP280;62384;53.600;10.040;2023-03-23T01:31:29;53172.34;;;11.07
74043;BMP280;62384;53.600;10.040;2023-03-23T01:33:55;53027.03;;;11.07
74043;BMP280;62384;53.600;10.040;2023-03-23T01:36:24;53044.72;;;11.03
74043;BMP280;62384;53.600;10.040;2023-03-23T01:38:51;52975.31;;;11.05
74043;BMP280;62384;53.600;10.040;2023-03-23T01:41:18;52925.09;;;11.05
74043;BMP280;62384;53.600;10.040;2023-03-23T01:44:04;52833.00;;;11.09
74043;BMP280;62384;53.600;10.040;2023-03-23T01:46:34;52789.22;;;11.11
74043;BMP280;62384;53.600;10.040;2023-03-23T01:49:07;52746.56;;;11.10
74043;BMP280;62384;53.600;10.040;2023-03-23T01:51:41;52776.78;;;11.12
74043;BMP280;62384;53.600;10.040;2023-03-23T01:54:11;52806.59;;;11.13
74043;BMP280;62384;53.600;10.040;2023-03-23T01:56:43;52741.66;;;11.07
74043;BMP280;62384;53.600;10.040;2023-03-23T01:59:11;52737.50;;;11.09
74043;BMP280;62384;53.600;10.040;2023-03-23T02:01:36;52729.56;;;11.09
74043;BMP280;62384;53.600;10.040;2023-03-23T02:04:08;52655.97;;;11.02
74043;BMP280;62384;53.600;10.040;2023-03-23T02:06:34;52695.22;;;11.09
74043;BMP280;62384;53.600;10.040;2023-03-23T02:08:59;52695.97;;;11.10
74043;BMP280;62384;53.600;10.040;2023-03-23T02:11:25;52652.94;;;11.09
74043;BMP280;62384;53.600;10.040;2023-03-23T02:13:50;52669.94;;;11.03
74043;BMP280;62384;53.600;10.040;2023-03-23T02:19:15;52906.59;;;11.05
74043;BMP280;62384;53.600;10.040;2023-03-23T02:21:59;53239.19;;;11.08
74043;BMP280;62384;53.600;10.040;2023-03-23T02:36:08;53291.25;;;11.07
74043;BMP280;62384;53.600;10.040;2023-03-23T02:38:41;53218.78;;;11.09
74043;BMP280;62384;53.600;10.040;2023-03-23T02:41:10;53202.63;;;11.16
74043;BMP280;62384;53.600;10.040;2023-03-23T02:43:40;53125.97;;;11.16
74043;BMP280;62384;53.600;10.040;2023-03-23T02:49:32;53112.03;;;11.18
74043;BMP280;62384;53.600;10.040;2023-03-23T02:51:59;53090.53;;;11.21
74043;BMP280;62384;53.600;10.040;2023-03-23T02:54:26;53005.53;;;11.14
74043;BMP280;62384;53.600;10.040;2023-03-23T02:56:54;53050.84;;;11.18
74043;BMP280;62384;53.600;10.040;2023-03-23T02:59:20;53044.03;;;11.16
74043;BMP280;62384;53.600;10.040;2023-03-23T03:01:51;52953.44;;;11.11
74043;BMP280;62384;53.600;10.040;2023-03-23T03:04:22;53050.44;;;11.14
74043;BMP280;62384;53.600;10.040;2023-03-23T03:10:02;52868.88;;;11.25
74043;BMP280;62384;53.600;10.040;2023-03-23T03:15:33;52790.75;;;11.34
74043;BMP280;62384;53.600;10.040;2023-03-23T03:18:11;52792.63;;;11.26
74043;BMP280;62384;53.600;10.040;2023-03-23T03:20:44;52798.66;;;11.34
74043;BMP280;62384;53.600;10.040;2023-03-23T03:23:12;52876.81;;;11.32
74043;BMP280;62384;53.600;10.040;2023-03-23T03:25:38;52890.06;;;11.36
74043;BMP280;62384;53.600;10.040;2023-03-23T03:28:06;53003.00;;;11.38
74043;BMP280;62384;53.600;10.040;2023-03-23T03:30:33;53092.50;;;11.41
74043;BMP280;62384;53.600;10.040;2023-03-23T03:33:00;53064.53;;;11.36
74043;BMP280;62384;53.600;10.040;2023-03-23T03:35:29;53064.09;;;11.25
74043;BMP280;62384;53.600;10.040;2023-03-23T03:37:57;53077.75;;;11.36
74043;BMP280;62384;53.600;10.040;2023-03-23T03:40:23;53069.09;;;11.42
74043;BMP280;62384;53.600;10.040;2023-03-23T03:42:49;53147.63;;;11.37
74043;BMP280;62384;53.600;10.040;2023-03-23T03:45:17;51908.56;;;11.24
74043;BMP280;62384;53.600;10.040;2023-03-23T03:47:43;53218.28;;;11.43
74043;BMP280;62384;53.600;10.040;2023-03-23T03:50:08;53298.28;;;11.34
74043;BMP280;62384;53.600;10.040;2023-03-23T03:52:34;53405.69;;;11.46
74043;BMP280;62384;53.600;10.040;2023-03-23T03:55:04;53364.56;;;11.52
74043;BMP280;62384;53.600;10.040;2023-03-23T03:57:29;53440.94;;;11.58
74043;BMP280;62384;53.600;10.040;2023-03-23T03:59:55;53570.91;;;11.59
74043;BMP280;62384;53.600;10.040;2023-03-23T04:02:21;53435.97;;;11.55
74043;BMP280;62384;53.600;10.040;2023-03-23T04:04:50;53569.00;;;11.56
74043;BMP280;62384;53.600;10.040;2023-03-23T04:07:18;54152.50;;;11.75
74043;BMP280;62384;53.600;10.040;2023-03-23T04:09:47;55965.91;;;11.85
74043;BMP280;62384;53.600;10.040;2023-03-23T04:12:16;55779.84;;;11.94
74043;BMP280;62384;53.600;10.040;2023-03-23T04:14:44;54862.06;;;11.72
74043;BMP280;62384;53.600;10.040;2023-03-23T04:17:09;54408.13;;;11.64
74043;BMP280;62384;53.600;10.040;2023-03-23T04:19:36;54193.34;;;11.77
74043;BMP280;62384;53.600;10.040;2023-03-23T04:22:02;54099.72;;;11.65
74043;BMP280;62384;53.600;10.040;2023-03-23T04:24:27;54036.16;;;11.62
74043;BMP280;62384;53.600;10.040;2023-03-23T04:26:56;54558.47;;;11.73
74043;BMP280;62384;53.600;10.040;2023-03-23T04:29:24;55042.03;;;11.82
74043;BMP280;62384;53.600;10.040;2023-03-23T04:31:49;55221.53;;;11.78
74043;BMP280;62384;53.600;10.040;2023-03-23T04:34:16;54888.81;;;11.69
74043;BMP280;62384;53.600;10.040;2023-03-23T04:36:41;54857.72;;;11.67
74043;BMP280;62384;53.600;10.040;2023-03-23T04:39:07;54700.75;;;11.52
74043;BMP280;62384;53.600;10.040;2023-03-23T04:41:36;54869.38;;;11.65
74043;BMP280;62384;53.600;10.040;2023-03-23T04:44:01;54628.94;;;11.65
74043;BMP280;62384;53.600;10.040;2023-03-23T04:46:29;54469.69;;;11.61
74043;BMP280;62384;53.600;10.040;2023-03-23T04:48:55;54417.16;;;11.62
74043;BMP280;62384;53.600;10.040;2023-03-23T04:51:23;54463.72;;;11.50
74043;BMP280;62384;53.600;10.040;2023-03-23T04:53:49;54589.03;;;11.44
74043;BMP280;62384;53.600;10.040;2023-03-23T04:56:15;55008.59;;;11.57
74043;BMP280;62384;53.600;10.040;2023-03-23T04:58:40;55016.53;;;11.57
74043;BMP280;62384;53.600;10.040;2023-03-23T05:01:05;55345.66;;;11.61
74043;BMP280;62384;53.600;10.040;2023-03-23T05:03:31;55671.94;;;11.69
74043;BMP280;62384;53.600;10.040;2023-03-23T05:05:56;55495.63;;;11.67
74043;BMP280;62384;53.600;10.040;2023-03-23T05:08:23;56116.53;;;11.72
74043;BMP280;62384;53.600;10.040;2023-03-23T05:10:56;55916.69;;;11.47
74043;BMP280;62384;53.600;10.040;2023-03-23T05:13:22;56273.16;;;11.72
74043;BMP280;62384;53.600;10.040;2023-03-23T05:15:48;56949.19;;;11.76
74043;BMP280;62384;53.600;10.040;2023-03-23T05:18:14;56862.53;;;11.71
74043;BMP280;62384;53.600;10.040;2023-03-23T05:20:40;56331.63;;;11.82
74043;BMP280;62384;53.600;10.040;2023-03-23T05:23:07;56254.81;;;11.82
74043;BMP280;62384;53.600;10.040;2023-03-23T05:25:33;56516.03;;;11.84
74043;BMP280;62384;53.600;10.040;2023-03-23T05:28:02;56518.06;;;11.87
74043;BMP280;62384;53.600;10.040;2023-03-23T05:30:27;56512.16;;;11.89
74043;BMP280;62384;53.600;10.040;2023-03-23T05:32:53;56355.88;;;11.89
74043;BMP280;62384;53.600;10.040;2023-03-23T05:35:18;56106.91;;;11.83
74043;BMP280;62384;53.600;10.040;2023-03-23T05:37:44;56209.38;;;11.82
74043;BMP280;62384;53.600;10.040;2023-03-23T05:40:10;56295.34;;;11.83
74043;BMP280;62384;53.600;10.040;2023-03-23T05:42:37;56152.56;;;11.80
74043;BMP280;62384;53.600;10.040;2023-03-23T05:45:04;56418.81;;;11.79
74043;BMP280;62384;53.600;10.040;2023-03-23T05:47:29;56213.25;;;11.83
74043;BMP280;62384;53.600;10.040;2023-03-23T05:49:56;56204.91;;;11.83
74043;BMP280;62384;53.600;10.040;2023-03-23T05:52:21;56036.03;;;11.80
74043;BMP280;62384;53.600;10.040;2023-03-23T05:54:48;56332.66;;;11.80
74043;BMP280;62384;53.600;10.040;2023-03-23T05:57:14;56357.50;;;11.78
74043;BMP280;62384;53.600;10.040;2023-03-23T05:59:39;56254.84;;;11.76
74043;BMP280;62384;53.600;10.040;2023-03-23T06:02:04;56099.22;;;11.73
74043;BMP280;62384;53.600;10.040;2023-03-23T06:04:30;56299.66;;;11.72
74043;BMP280;62384;53.600;10.040;2023-03-23T06:06:58;56604.44;;;11.76
74043;BMP280;62384;53.600;10.040;2023-03-23T06:09:24;56717.91;;;11.75
74043;BMP280;62384;53.600;10.040;2023-03-23T06:11:50;56618.88;;;11.71
74043;BMP280;62384;53.600;10.040;2023-03-23T06:14:15;56963.44;;;11.74
74043;BMP280;62384;53.600;10.040;2023-03-23T06:16:43;56848.47;;;11.70
74043;BMP280;62384;53.600;10.040;2023-03-23T06:19:09;56932.00;;;11.68
74043;BMP280;62384;53.600;10.040;2023-03-23T06:21:34;56948.94;;;11.73
74043;BMP280;62384;53.600;10.040;2023-03-23T06:23:59;56961.78;;;11.72
74043;BMP280;62384;53.600;10.040;2023-03-23T06:26:34;57156.72;;;11.68
74043;BMP280;62384;53.600;10.040;2023-03-23T06:29:00;56867.19;;;11.67
74043;BMP280;62384;53.600;10.040;2023-03-23T06:31:26;57141.91;;;11.72
74043;BMP280;62384;53.600;10.040;2023-03-23T06:33:55;57126.41;;;11.73
74043;BMP280;62384;53.600;10.040;2023-03-23T06:36:21;56885.56;;;11.70
74043;BMP280;62384;53.600;10.040;2023-03-23T06:38:48;57040.41;;;11.71
74043;BMP280;62384;53.600;10.040;2023-03-23T06:41:16;57299.69;;;11.77
74043;BMP280;62384;53.600;10.040;2023-03-23T06:43:42;57829.63;;;11.87
74043;BMP280;62384;53.600;10.040;2023-03-23T06:46:09;58086.19;;;11.89
74043;BMP280;62384;53.600;10.040;2023-03-23T06:48:35;58598.66;;;12.03
74043;BMP280;62384;53.600;10.040;2023-03-23T06:51:01;59107.25;;;12.08
74043;BMP280;62384;53.600;10.040;2023-03-23T06:53:27;58907.81;;;12.11
74043;BMP280;62384;53.600;10.040;2023-03-23T06:55:53;59363.56;;;12.13
74043;BMP280;62384;53.600;10.040;2023-03-23T06:58:18;59605.34;;;12.17
74043;BMP280;62384;53.600;10.040;2023-03-23T07:00:43;59995.81;;;12.20
74043;BMP280;62384;53.600;10.040;2023-03-23T07:03:09;60067.88;;;12.24
74043;BMP280;62384;53.600;10.040;2023-03-23T07:05:35;60055.06;;;12.21
74043;BMP280;62384;53.600;10.040;2023-03-23T07:08:03;60931.88;;;12.35
74043;BMP280;62384;53.600;10.040;2023-03-23T07:10:29;61283.72;;;12.33
74043;BMP280;62384;53.600;10.040;2023-03-23T07:12:55;61342.59;;;12.34
74043;BMP280;62384;53.600;10.040;2023-03-23T07:15:21;61573.75;;;12.43
74043;BMP280;62384;53.600;10.040;2023-03-23T07:17:47;62115.03;;;12.54
74043;BMP280;62384;53.600;10.040;2023-03-23T07:20:13;62744.03;;;12.56
74043;BMP280;62384;53.600;10.040;2023-03-23T07:22:39;63100.41;;;12.62
74043;BMP280;62384;53.600;10.040;2023-03-23T07:25:04;62945.78;;;12.61
74043;BMP280;62384;53.600;10.040;2023-03-23T07:27:30;62897.59;;;12.64
74043;BMP280;62384;53.600;10.040;2023-03-23T07:29:56;63030.94;;;12.64
74043;BMP280;62384;53.600;10.040;2023-03-23T07:32:23;63363.88;;;12.68
74043;BMP280;62384;53.600;10.040;2023-03-23T07:34:48;64019.16;;;12.72
74043;BMP280;62384;53.600;10.040;2023-03-23T07:37:13;64216.34;;;12.86
74043;BMP280;62384;53.600;10.040;2023-03-23T07:39:39;65260.97;;;13.08
74043;BMP280;62384;53.600;10.040;2023-03-23T07:42:05;65748.00;;;13.16
74043;BMP280;62384;53.600;10.040;2023-03-23T07:44:32;65698.13;;;13.19
74043;BMP280;62384;53.600;10.040;2023-03-23T07:46:57;66201.38;;;13.33
74043;BMP280;62384;53.600;10.040;2023-03-23T07:49:25;65558.88;;;13.27
74043;BMP280;62384;53.600;10.040;2023-03-23T07:51:54;65327.00;;;13.18
74043;BMP280;62384;53.600;10.040;2023-03-23T07:54:20;63164.59;;;12.94
74043;BMP280;62384;53.600;10.040;2023-03-23T07:56:46;60705.31;;;12.67
74043;BMP280;62384;53.600;10.040;2023-03-23T07:59:11;57252.53;;;12.49
74043;BMP280;62384;53.600;10.040;2023-03-23T08:01:38;57501.25;;;12.26
74043;BMP280;62384;53.600;10.040;2023-03-23T08:04:04;57351.47;;;12.17
74043;BMP280;62384;53.600;10.040;2023-03-23T08:06:32;56000.28;;;12.21
74043;BMP280;62384;53.600;10.040;2023-03-23T08:09:01;57256.34;;;12.28
74043;BMP280;62384;53.600;10.040;2023-03-23T08:11:28;57556.38;;;12.28
74043;BMP280;62384;53.600;10.040;2023-03-23T08:13:53;57280.13;;;12.37
74043;BMP280;62384;53.600;10.040;2023-03-23T08:16:18;56698.34;;;12.26
74043;BMP280;62384;53.600;10.040;2023-03-23T08:18:47;55700.63;;;12.25
74043;BMP280;62384;53.600;10.040;2023-03-23T08:21:15;55850.06;;;12.23
74043;BMP280;62384;53.600;10.040;2023-03-23T08:23:40;55657.50;;;12.17
74043;BMP280;62384;53.600;10.040;2023-03-23T08:26:07;55459.44;;;12.14
74043;BMP280;62384;53.600;10.040;2023-03-23T08:28:34;54114.78;;;11.98
74043;BMP280;62384;53.600;10.040;2023-03-23T08:31:08;53674.94;;;11.67
74043;BMP280;62384;53.600;10.040;2023-03-23T08:33:35;53531.31;;;11.31
74043;BMP280;62384;53.600;10.040;2023-03-23T08:36:04;55744.50;;;11.43
74043;BMP280;62384;53.600;10.040;2023-03-23T08:38:30;56334.72;;;11.30
74043;BMP280;62384;53.600;10.040;2023-03-23T08:41:00;56806.84;;;11.28
74043;BMP280;62384;53.600;10.040;2023-03-23T08:43:25;55605.75;;;11.35
74043;BMP280;62384;53.600;10.040;2023-03-23T08:45:52;56056.00;;;11.36
74043;BMP280;62384;53.600;10.040;2023-03-23T08:48:18;56244.91;;;11.47
74043;BMP280;62384;53.600;10.040;2023-03-23T08:50:44;56315.75;;;11.63
74043;BMP280;62384;53.600;10.040;2023-03-23T08:53:10;57762.66;;;11.92
74043;BMP280;62384;53.600;10.040;2023-03-23T08:55:35;58713.00;;;12.06
74043;BMP280;62384;53.600;10.040;2023-03-23T08:58:00;58263.16;;;12.17
74043;BMP280;62384;53.600;10.040;2023-03-23T09:00:26;57865.41;;;12.27
74043;BMP280;62384;53.600;10.040;2023-03-23T09:02:53;57715.75;;;12.41
74043;BMP280;62384;53.600;10.040;2023-03-23T09:05:22;57979.34;;;12.49
74043;BMP280;62384;53.600;10.040;2023-03-23T09:07:52;58802.59;;;12.56
74043;BMP280;62384;53.600;10.040;2023-03-23T09:10:19;58507.88;;;12.84
74043;BMP280;62384;53.600;10.040;2023-03-23T09:12:46;60384.16;;;13.04
74043;BMP280;62384;53.600;10.040;2023-03-23T09:15:14;60695.13;;;13.04
74043;BMP280;62384;53.600;10.040;2023-03-23T09:17:42;61145.56;;;12.87
74043;BMP280;62384;53.600;10.040;2023-03-23T09:20:09;61334.31;;;12.90
74043;BMP280;62384;53.600;10.040;2023-03-23T09:22:38;60839.50;;;12.71
74043;BMP280;62384;53.600;10.040;2023-03-23T09:25:04;61069.56;;;12.40
74043;BMP280;62384;53.600;10.040;2023-03-23T09:27:29;62170.66;;;12.65
74043;BMP280;62384;53.600;10.040;2023-03-23T09:29:55;63054.66;;;12.70
74043;BMP280;62384;53.600;10.040;2023-03-23T09:32:21;63292.22;;;12.71
74043;BMP280;62384;53.600;10.040;2023-03-23T09:34:47;63976.44;;;12.69
74043;BMP280;62384;53.600;10.040;2023-03-23T09:37:13;64928.91;;;12.52
74043;BMP280;62384;53.600;10.040;2023-03-23T09:39:39;63922.13;;;12.48
74043;BMP280;62384;53.600;10.040;2023-03-23T09:42:13;64089.50;;;12.62
74043;BMP280;62384;53.600;10.040;2023-03-23T09:45:11;64522.53;;;12.75
74043;BMP280;62384;53.600;10.040;2023-03-23T09:50:32;67490.78;;;13.08
74043;BMP280;62384;53.600;10.040;2023-03-23T09:53:12;66923.31;;;13.22
74043;BMP280;62384;53.600;10.040;2023-03-23T09:55:39;67322.00;;;13.21
74043;BMP280;62384;53.600;10.040;2023-03-23T10:01:04;69775.63;;;14.23
74043;BMP280;62384;53.600;10.040;2023-03-23T10:03:38;69623.66;;;14.57
74043;BMP280;62384;53.600;10.040;2023-03-23T10:06:04;70050.84;;;14.05
74043;BMP280;62384;53.600;10.040;2023-03-23T10:08:32;69209.88;;;13.60
74043;BMP280;62384;53.600;10.040;2023-03-23T10:11:03;68450.13;;;13.58
74043;BMP280;62384;53.600;10.040;2023-03-23T10:16:37;69235.50;;;13.86
74043;BMP280;62384;53.600;10.040;2023-03-23T10:19:29;70622.38;;;14.10
74043;BMP280;62384;53.600;10.040;2023-03-23T10:22:02;71687.41;;;14.49
74043;BMP280;62384;53.600;10.040;2023-03-23T10:24:51;73184.03;;;14.85
74043;BMP280;62384;53.600;10.040;2023-03-23T10:27:33;73045.53;;;15.32
74043;BMP280;62384;53.600;10.040;2023-03-23T10:30:15;74138.66;;;14.91
74043;BMP280;62384;53.600;10.040;2023-03-23T10:32:47;73219.13;;;14.16
74043;BMP280;62384;53.600;10.040;2023-03-23T10:35:19;71878.44;;;13.57
74043;BMP280;62384;53.600;10.040;2023-03-23T10:37:55;71817.53;;;13.65
74043;BMP280;62384;53.600;10.040;2023-03-23T10:40:27;71768.94;;;13.69
74043;BMP280;62384;53.600;10.040;2023-03-23T10:42:53;71645.47;;;13.77
74043;BMP280;62384;53.600;10.040;2023-03-23T10:45:27;72092.19;;;13.85
74043;BMP280;62384;53.600;10.040;2023-03-23T10:48:17;72204.38;;;13.77
74043;BMP280;62384;53.600;10.040;2023-03-23T10:50:45;71893.41;;;13.76
74043;BMP280;62384;53.600;10.040;2023-03-23T10:53:19;72207.03;;;13.72
74043;BMP280;62384;53.600;10.040;2023-03-23T10:55:46;70903.44;;;13.44
74043;BMP280;62384;53.600;10.040;2023-03-23T10:58:26;71546.16;;;13.66
74043;BMP280;62384;53.600;10.040;2023-03-23T11:00:53;72014.69;;;13.75
74043;BMP280;62384;53.600;10.040;2023-03-23T11:03:25;72141.31;;;13.73
74043;BMP280;62384;53.600;10.040;2023-03-23T11:05:59;73659.28;;;13.93
74043;BMP280;62384;53.600;10.040;2023-03-23T11:08:28;76282.94;;;14.06
74043;BMP280;62384;53.600;10.040;2023-03-23T11:11:11;87581.16;;;14.15
74043;BMP280;62384;53.600;10.040;2023-03-23T11:13:47;105760.47;;;14.23
74043;BMP280;62384;53.600;10.040;2023-03-23T11:16:33;110045.78;;;14.42
74043;BMP280;62384;53.600;10.040;2023-03-23T11:19:11;127326.44;;;14.50
74043;BMP280;62384;53.600;10.040;2023-03-23T11:21:37;130830.50;;;14.57
74043;BMP280;62384;53.600;10.040;2023-03-23T11:24:04;132966.44;;;14.75
74043;BMP280;62384;53.600;10.040;2023-03-23T11:26:34;135025.41;;;14.56
74043;BMP280;62384;53.600;10.040;2023-03-23T11:29:17;134296.16;;;14.42
74043;BMP280;62384;53.600;10.040;2023-03-23T11:31:47;133906.38;;;14.23
74043;BMP280;62384;53.600;10.040;2023-03-23T11:34:23;134610.94;;;14.25
74043;BMP280;62384;53.600;10.040;2023-03-23T11:36:54;134607.75;;;14.24
74043;BMP280;62384;53.600;10.040;2023-03-23T11:39:45;135333.78;;;14.36
74043;BMP280;62384;53.600;10.040;2023-03-23T11:42:17;135002.06;;;14.45
74043;BMP280;62384;53.600;10.040;2023-03-23T11:44:43;133931.66;;;14.35
74043;BMP280;62384;53.600;10.040;2023-03-23T11:47:29;130065.41;;;14.24
74043;BMP280;62384;53.600;10.040;2023-03-23T11:50:04;124112.63;;;14.12
74043;BMP280;62384;53.600;10.040;2023-03-23T11:52:41;115725.66;;;13.91
74043;BMP280;62384;53.600;10.040;2023-03-23T11:57:40;92831.03;;;13.71
74043;BMP280;62384;53.600;10.040;2023-03-23T12:02:53;84707.97;;;13.57
74043;BMP280;62384;53.600;10.040;2023-03-23T12:05:42;84023.63;;;13.52
74043;BMP280;62384;53.600;10.040;2023-03-23T12:13:46;91529.81;;;13.90
74043;BMP280;62384;53.600;10.040;2023-03-23T12:16:46;98128.28;;;14.02
74043;BMP280;62384;53.600;10.040;2023-03-23T12:24:45;74793.81;;;13.59
74043;BMP280;62384;53.600;10.040;2023-03-23T12:43:04;67648.31;;;13.51
74043;BMP280;62384;53.600;10.040;2023-03-23T12:48:42;66406.59;;;13.38
74043;BMP280;62384;53.600;10.040;2023-03-23T12:51:17;66691.09;;;13.27
74043;BMP280;62384;53.600;10.040;2023-03-23T12:59:19;66306.59;;;13.78
74043;BMP280;62384;53.600;10.040;2023-03-23T13:01:50;66418.88;;;13.81
74043;BMP280;62384;53.600;10.040;2023-03-23T13:04:25;67223.81;;;14.16
74043;BMP280;62384;53.600;10.040;2023-03-23T13:06:52;71574.34;;;15.90
74043;BMP280;62384;53.600;10.040;2023-03-23T13:12:20;147276.34;;;17.51
74043;BMP280;62384;53.600;10.040;2023-03-23T13:17:44;146938.38;;;17.58
74043;BMP280;62384;53.600;10.040;2023-03-23T13:20:15;144792.53;;;17.45
74043;BMP280;62384;53.600;10.040;2023-03-23T13:25:27;142082.88;;;16.37
74043;BMP280;62384;53.600;10.040;2023-03-23T13:28:00;144286.25;;;16.77
74043;BMP280;62384;53.600;10.040;2023-03-23T13:30:29;142107.47;;;16.48
74043;BMP280;62384;53.600;10.040;2023-03-23T13:33:05;143169.91;;;16.51
74043;BMP280;62384;53.600;10.040;2023-03-23T13:35:38;141752.38;;;16.46
74043;BMP280;62384;53.600;10.040;2023-03-23T13:38:31;141013.38;;;16.30
74043;BMP280;62384;53.600;10.040;2023-03-23T13:40:57;139485.38;;;15.74
74043;BMP280;62384;53.600;10.040;2023-03-23T13:43:32;139460.09;;;15.63
74043;BMP280;62384;53.600;10.040;2023-03-23T13:48:43;139472.16;;;15.68
74043;BMP280;62384;53.600;10.040;2023-03-23T13:59:47;136142.84;;;14.88
74043;BMP280;62384;53.600;10.040;2023-03-23T14:02:32;135066.88;;;14.76
74043;BMP280;62384;53.600;10.040;2023-03-23T14:08:22;74762.16;;;12.28
74043;BMP280;62384;53.600;10.040;2023-03-23T14:10:51;66221.78;;;11.34
74043;BMP280;62384;53.600;10.040;2023-03-23T14:16:24;56845.03;;;10.55
74043;BMP280;62384;53.600;10.040;2023-03-23T14:19:00;55414.13;;;10.57
74043;BMP280;62384;53.600;10.040;2023-03-23T14:21:39;56263.72;;;10.52
74043;BMP280;62384;53.600;10.040;2023-03-23T14:24:15;56734.28;;;10.88
74043;BMP280;62384;53.600;10.040;2023-03-23T14:26:41;57748.22;;;11.02
74043;BMP280;62384;53.600;10.040;2023-03-23T14:29:10;59021.78;;;11.08
74043;BMP280;62384;53.600;10.040;2023-03-23T14:31:36;58778.25;;;11.68
74043;BMP280;62384;53.600;10.040;2023-03-23T14:34:04;61625.88;;;12.36
74043;BMP280;62384;53.600;10.040;2023-03-23T14:36:37;63183.34;;;13.20
74043;BMP280;62384;53.600;10.040;2023-03-23T14:39:12;64409.38;;;13.73
74043;BMP280;62384;53.600;10.040;2023-03-23T14:41:38;67688.47;;;13.49
74043;BMP280;62384;53.600;10.040;2023-03-23T14:44:07;67258.22;;;13.91
74043;BMP280;62384;53.600;10.040;2023-03-23T14:46:34;68141.41;;;14.18
74043;BMP280;62384;53.600;10.040;2023-03-23T14:49:02;69267.94;;;14.38
74043;BMP280;62384;53.600;10.040;2023-03-23T14:51:29;71130.00;;;14.56
74043;BMP280;62384;53.600;10.040;2023-03-23T14:53:54;71669.72;;;14.58
74043;BMP280;62384;53.600;10.040;2023-03-23T14:56:21;72676.78;;;14.66
74043;BMP280;62384;53.600;10.040;2023-03-23T14:58:50;73008.53;;;14.26
74043;BMP280;62384;53.600;10.040;2023-03-23T15:01:26;72515.56;;;14.50
74043;BMP280;62384;53.600;10.040;2023-03-23T15:03:56;71937.22;;;14.40
74043;BMP280;62384;53.600;10.040;2023-03-23T15:06:25;71682.94;;;14.80
74043;BMP280;62384;53.600;10.040;2023-03-23T15:08:54;74180.31;;;15.36
74043;BMP280;62384;53.600;10.040;2023-03-23T15:11:24;74440.63;;;15.00
74043;BMP280;62384;53.600;10.040;2023-03-23T15:13:54;72493.50;;;14.37
74043;BMP280;62384;53.600;10.040;2023-03-23T15:16:27;71524.63;;;13.99
74043;BMP280;62384;53.600;10.040;2023-03-23T15:18:58;70282.63;;;13.65
74043;BMP280;62384;53.600;10.040;2023-03-23T15:21:35;70506.06;;;13.54
74043;BMP280;62384;53.600;10.040;2023-03-23T15:24:17;69269.19;;;13.32
74043;BMP280;62384;53.600;10.040;2023-03-23T15:26:44;69384.44;;;13.04
74043;BMP280;62384;53.600;10.040;2023-03-23T15:29:15;69087.34;;;13.19
74043;BMP280;62384;53.600;10.040;2023-03-23T15:31:42;69360.38;;;13.20
74043;BMP280;62384;53.600;10.040;2023-03-23T15:34:35;68996.97;;;13.24
74043;BMP280;62384;53.600;10.040;2023-03-23T15:37:20;69695.47;;;13.16
74043;BMP280;62384;53.600;10.040;2023-03-23T15:39:46;69063.06;;;13.13
74043;BMP280;62384;53.600;10.040;2023-03-23T15:44:58;69272.97;;;13.05
74043;BMP280;62384;53.600;10.040;2023-03-23T15:50:09;68833.41;;;13.10
74043;BMP280;62384;53.600;10.040;2023-03-23T15:52:35;69670.25;;;13.20